createdAt,value
2024-01-25T00:00:47.953Z,8.30
2024-01-25T00:03:17.527Z,8.37
2024-01-25T00:05:45.727Z,8.35
2024-01-25T00:08:13.701Z,8.27
2024-01-25T00:10:41.648Z,8.26
2024-01-25T00:13:09.582Z,8.25
2024-01-25T00:15:37.644Z,8.22
2024-01-25T00:18:05.820Z,8.33
2024-01-25T00:20:35.361Z,8.24
2024-01-25T00:23:03.341Z,8.22
2024-01-25T00:25:31.391Z,8.19
2024-01-25T00:27:59.452Z,8.19
2024-01-25T00:30:27.551Z,8.23
2024-01-25T00:32:55.602Z,8.22
2024-01-25T00:35:24.531Z,8.19
2024-01-25T00:37:54.570Z,8.15
2024-01-25T00:40:23.148Z,8.16
2024-01-25T00:42:54.584Z,8.14
2024-01-25T00:45:23.243Z,8.22
2024-01-25T00:47:52.867Z,8.08
2024-01-25T00:50:25.303Z,8.14
2024-01-25T00:52:55.372Z,8.14
2024-01-25T00:55:24.414Z,8.09
2024-01-25T00:57:53.509Z,8.19
2024-01-25T01:00:22.854Z,8.05
2024-01-25T01:02:51.391Z,8.07
2024-01-25T01:05:19.971Z,8.08
2024-01-25T01:07:48.556Z,8.17
2024-01-25T01:10:17.936Z,8.15
2024-01-25T01:12:45.972Z,8.16
2024-01-25T01:15:13.934Z,8.15
2024-01-25T01:17:42.029Z,8.06
2024-01-25T01:20:10.997Z,8.03
2024-01-25T01:22:39.060Z,8.09
2024-01-25T01:25:09.607Z,8.15
2024-01-25T01:27:39.026Z,8.14
2024-01-25T01:30:09.239Z,8.09
2024-01-25T01:32:37.325Z,8.09
2024-01-25T01:35:06.325Z,8.03
2024-01-25T01:37:34.317Z,8.06
2024-01-25T01:40:02.313Z,8.01
2024-01-25T01:42:30.402Z,8.05
2024-01-25T01:44:59.650Z,8.12
2024-01-25T01:47:27.908Z,8.07
2024-01-25T01:49:56.116Z,8.02
2024-01-25T01:52:24.400Z,8.02
2024-01-25T01:54:52.521Z,8.04
2024-01-25T01:57:20.562Z,8.04
2024-01-25T01:59:50.083Z,8.06
2024-01-25T02:02:19.795Z,8.01
2024-01-25T02:04:47.750Z,8.00
2024-01-25T02:07:15.968Z,8.02
2024-01-25T02:09:43.937Z,8.02
2024-01-25T02:12:12.570Z,8.07
2024-01-25T02:14:40.481Z,8.01
2024-01-25T02:17:08.482Z,8.01
2024-01-25T02:19:38.023Z,7.98
2024-01-25T02:22:07.195Z,7.97
2024-01-25T02:24:36.638Z,7.93
2024-01-25T02:27:06.212Z,7.89
2024-01-25T02:29:34.372Z,7.89
2024-01-25T02:32:02.239Z,7.89
2024-01-25T02:34:30.204Z,7.82
2024-01-25T02:36:58.521Z,7.85
2024-01-25T02:39:26.414Z,7.83
2024-01-25T02:41:55.627Z,7.83
2024-01-25T02:44:23.489Z,7.92
2024-01-25T02:46:51.803Z,7.83
2024-01-25T02:49:19.837Z,7.82
2024-01-25T02:51:48.310Z,7.82
2024-01-25T02:54:16.317Z,7.81
2024-01-25T02:56:44.502Z,7.85
2024-01-25T02:59:13.825Z,7.79
2024-01-25T03:01:43.218Z,7.79
2024-01-25T03:04:11.572Z,7.79
2024-01-25T03:06:39.756Z,7.78
2024-01-25T03:09:07.645Z,7.76
2024-01-25T03:11:35.502Z,7.76
2024-01-25T03:14:03.904Z,7.78
2024-01-25T03:16:33.220Z,7.81
2024-01-25T03:19:01.206Z,7.79
2024-01-25T03:21:30.381Z,7.82
2024-01-25T03:23:58.463Z,7.79
2024-01-25T03:26:29.030Z,7.85
2024-01-25T03:28:57.106Z,7.85
2024-01-25T03:31:24.988Z,7.73
2024-01-25T03:33:54.422Z,7.72
2024-01-25T03:36:22.628Z,7.72
2024-01-25T03:38:50.628Z,7.81
2024-01-25T03:41:18.512Z,7.77
2024-01-25T03:43:46.424Z,7.78
2024-01-25T03:46:14.557Z,7.83
2024-01-25T03:48:42.631Z,7.72
2024-01-25T03:51:11.907Z,7.69
2024-01-25T03:53:40.399Z,7.80
2024-01-25T03:56:13.469Z,7.69
2024-01-25T03:58:41.522Z,7.71
2024-01-25T04:01:10.420Z,7.71
2024-01-25T04:03:38.635Z,7.71
2024-01-25T04:06:07.168Z,7.70
2024-01-25T04:08:36.420Z,7.73
2024-01-25T04:11:04.416Z,7.69
2024-01-25T04:13:32.372Z,7.66
2024-01-25T04:16:00.790Z,7.62
2024-01-25T04:18:28.895Z,7.68
2024-01-25T04:20:56.868Z,7.69
2024-01-25T04:23:24.845Z,7.59
2024-01-25T04:25:56.377Z,7.62
2024-01-25T04:28:24.544Z,7.65
2024-01-25T04:30:52.510Z,7.66
2024-01-25T04:33:20.547Z,7.61
2024-01-25T04:35:48.471Z,7.59
2024-01-25T04:38:16.416Z,7.56
2024-01-25T04:40:44.515Z,7.60
2024-01-25T04:43:14.827Z,7.56
2024-01-25T04:45:42.892Z,7.60
2024-01-25T04:48:11.168Z,7.58
2024-01-25T04:50:40.264Z,7.54
2024-01-25T04:53:08.561Z,7.53
2024-01-25T04:55:36.471Z,7.49
2024-01-25T04:58:04.593Z,7.58
2024-01-25T05:00:34.750Z,7.56
2024-01-25T05:03:02.788Z,7.60
2024-01-25T05:05:30.704Z,7.60
2024-01-25T05:07:58.793Z,7.52
2024-01-25T05:10:27.235Z,7.58
2024-01-25T05:12:55.274Z,7.51
2024-01-25T05:15:23.233Z,7.50
2024-01-25T05:17:52.631Z,7.52
2024-01-25T05:20:20.719Z,7.53
2024-01-25T05:22:48.871Z,7.50
2024-01-25T05:25:16.967Z,7.52
2024-01-25T05:27:44.901Z,7.55
2024-01-25T05:30:13.621Z,7.56
2024-01-25T05:32:41.740Z,7.50
2024-01-25T05:35:11.301Z,7.55
2024-01-25T05:37:39.382Z,7.51
2024-01-25T05:40:08.469Z,7.55
2024-01-25T05:42:36.365Z,7.55
2024-01-25T05:45:05.155Z,7.53
2024-01-25T05:47:33.422Z,7.58
2024-01-25T05:50:01.557Z,7.50
2024-01-25T05:52:31.077Z,7.48
2024-01-25T05:55:01.401Z,7.54
2024-01-25T05:57:31.279Z,7.54
2024-01-25T05:59:59.196Z,7.51
2024-01-25T06:02:27.257Z,7.52
2024-01-25T06:04:56.180Z,7.49
2024-01-25T06:07:24.326Z,7.52
2024-01-25T06:09:53.868Z,7.51
2024-01-25T06:12:22.139Z,7.60
2024-01-25T06:14:50.077Z,7.60
2024-01-25T06:17:17.907Z,7.57
2024-01-25T06:19:46.400Z,7.52
2024-01-25T06:22:14.533Z,7.58
2024-01-25T06:24:42.573Z,7.58
2024-01-25T06:27:11.915Z,7.61
2024-01-25T06:29:39.964Z,7.55
2024-01-25T06:32:13.567Z,7.50
2024-01-25T06:34:44.221Z,7.44
2024-01-25T06:37:13.586Z,7.54
2024-01-25T06:39:42.775Z,7.46
2024-01-25T06:42:12.098Z,7.47
2024-01-25T06:44:39.979Z,7.42
2024-01-25T06:47:07.989Z,7.42
2024-01-25T06:49:36.097Z,7.49
2024-01-25T06:52:04.713Z,7.48
2024-01-25T06:54:33.081Z,7.49
2024-01-25T06:57:01.048Z,7.50
2024-01-25T06:59:30.384Z,7.55
2024-01-25T07:01:59.211Z,7.52
2024-01-25T07:04:27.684Z,7.49
2024-01-25T07:06:55.988Z,7.47
2024-01-25T07:09:24.026Z,7.54
2024-01-25T07:11:51.922Z,7.62
2024-01-25T07:14:19.849Z,7.53
2024-01-25T07:16:49.105Z,7.55
2024-01-25T07:19:17.044Z,7.54
2024-01-25T07:21:46.889Z,7.54
2024-01-25T07:24:15.360Z,7.45
2024-01-25T07:26:43.215Z,7.51
2024-01-25T07:29:11.143Z,7.57
2024-01-25T07:31:39.026Z,7.51
2024-01-25T07:34:08.494Z,7.53
2024-01-25T07:36:36.426Z,7.64
2024-01-25T07:39:04.733Z,7.57
2024-01-25T07:41:32.627Z,7.55
2024-01-25T07:44:00.460Z,7.57
2024-01-25T07:46:28.486Z,7.58
2024-01-25T07:48:56.762Z,7.58
2024-01-25T07:51:29.419Z,7.57
2024-01-25T07:53:57.471Z,7.59
2024-01-25T07:56:25.378Z,7.62
2024-01-25T07:58:53.454Z,7.63
2024-01-25T08:01:22.281Z,7.52
2024-01-25T08:03:50.431Z,7.53
2024-01-25T08:06:20.263Z,7.54
2024-01-25T08:08:49.551Z,7.57
2024-01-25T08:11:19.668Z,7.56
2024-01-25T08:13:48.461Z,7.61
2024-01-25T08:16:20.382Z,7.67
2024-01-25T08:18:50.312Z,7.66
2024-01-25T08:21:19.129Z,7.63
2024-01-25T08:23:47.033Z,7.59
2024-01-25T08:26:16.554Z,7.67
2024-01-25T08:28:45.445Z,7.64
2024-01-25T08:31:13.907Z,7.68
2024-01-25T08:33:45.746Z,7.66
2024-01-25T08:36:14.728Z,7.84
2024-01-25T08:38:42.639Z,7.78
2024-01-25T08:41:12.140Z,7.76
2024-01-25T08:43:41.614Z,7.74
2024-01-25T08:46:09.635Z,7.79
2024-01-25T08:48:37.736Z,8.01
2024-01-25T08:51:06.316Z,8.15
2024-01-25T08:53:34.395Z,8.10
2024-01-25T08:56:05.015Z,8.11
2024-01-25T08:58:34.305Z,8.06
2024-01-25T09:01:03.719Z,8.06
2024-01-25T09:03:32.249Z,8.11
2024-01-25T09:06:06.443Z,7.98
2024-01-25T09:08:34.830Z,8.00
2024-01-25T09:11:02.814Z,7.95
2024-01-25T09:13:31.188Z,7.99
2024-01-25T09:15:59.700Z,7.93
2024-01-25T09:18:29.170Z,7.81
2024-01-25T09:20:57.396Z,7.78
2024-01-25T09:23:25.711Z,7.75
2024-01-25T09:25:53.987Z,7.78
2024-01-25T09:28:21.998Z,7.71
2024-01-25T09:30:50.402Z,7.80
2024-01-25T09:33:21.614Z,7.77
2024-01-25T09:35:51.453Z,7.75
2024-01-25T09:38:20.066Z,7.72
2024-01-25T09:40:49.907Z,7.79
2024-01-25T09:43:18.121Z,7.84
2024-01-25T09:45:46.660Z,7.78
2024-01-25T09:48:16.235Z,7.76
2024-01-25T09:50:44.703Z,7.75
2024-01-25T09:53:19.057Z,7.76
2024-01-25T09:55:48.152Z,7.73
2024-01-25T09:58:17.017Z,7.60
2024-01-25T10:00:45.005Z,7.76
2024-01-25T10:03:13.034Z,7.87
2024-01-25T10:05:41.047Z,7.83
2024-01-25T10:08:15.941Z,7.82
2024-01-25T10:10:44.052Z,7.93
2024-01-25T10:13:14.932Z,7.86
2024-01-25T10:15:45.474Z,7.78
2024-01-25T10:18:24.331Z,7.74
2024-01-25T10:20:57.912Z,7.89
2024-01-25T10:23:27.612Z,7.93
2024-01-25T10:25:56.143Z,8.00
2024-01-25T10:28:26.632Z,7.96
2024-01-25T10:30:58.275Z,7.95
2024-01-25T10:33:26.849Z,7.95
2024-01-25T10:35:56.771Z,7.92
2024-01-25T10:38:26.882Z,7.99
2024-01-25T10:40:55.844Z,7.90
2024-01-25T10:43:23.809Z,7.95
2024-01-25T10:45:56.656Z,8.08
2024-01-25T10:48:24.772Z,7.99
2024-01-25T10:50:52.749Z,7.94
2024-01-25T10:53:21.079Z,8.05
2024-01-25T10:55:50.460Z,8.06
2024-01-25T10:58:18.827Z,8.06
2024-01-25T11:00:53.810Z,8.03
2024-01-25T11:03:22.007Z,8.16
2024-01-25T11:05:50.998Z,8.20
2024-01-25T11:08:20.888Z,8.25
2024-01-25T11:10:53.024Z,8.33
2024-01-25T11:13:26.781Z,8.43
2024-01-25T11:15:54.987Z,8.50
2024-01-25T11:18:27.089Z,8.30
2024-01-25T11:20:55.223Z,8.42
2024-01-25T11:23:23.815Z,8.43
2024-01-25T11:25:53.055Z,8.52
2024-01-25T11:28:21.054Z,8.56
2024-01-25T11:30:49.460Z,8.39
2024-01-25T11:33:17.442Z,8.45
2024-01-25T11:35:45.533Z,8.35
2024-01-25T11:38:13.467Z,8.48
2024-01-25T11:40:41.363Z,8.53
2024-01-25T11:43:14.484Z,8.57
2024-01-25T11:45:44.726Z,8.48
2024-01-25T11:48:13.339Z,8.82
2024-01-25T11:50:41.717Z,8.49
2024-01-25T11:53:10.874Z,8.65
2024-01-25T11:55:39.028Z,8.74
2024-01-25T11:58:07.193Z,8.82
2024-01-25T12:00:36.602Z,8.93
2024-01-25T12:03:06.717Z,8.66
2024-01-25T12:05:34.912Z,8.85
2024-01-25T12:08:03.055Z,9.24
2024-01-25T12:10:31.150Z,9.50
2024-01-25T12:12:59.428Z,9.54
2024-01-25T12:15:27.352Z,9.63
2024-01-25T12:17:56.902Z,9.48
2024-01-25T12:20:25.379Z,8.87
2024-01-25T12:22:53.635Z,9.14
2024-01-25T12:25:21.963Z,9.49
2024-01-25T12:27:51.544Z,9.64
2024-01-25T12:30:19.502Z,9.57
2024-01-25T12:32:50.426Z,9.24
2024-01-25T12:35:20.229Z,9.08
2024-01-25T12:37:48.307Z,8.95
2024-01-25T12:40:16.557Z,8.85
2024-01-25T12:42:44.806Z,8.79
2024-01-25T12:45:13.614Z,8.95
2024-01-25T12:47:41.824Z,8.98
2024-01-25T12:50:10.742Z,8.75
2024-01-25T12:52:40.029Z,8.96
2024-01-25T12:55:08.952Z,8.95
2024-01-25T12:57:37.083Z,9.02
2024-01-25T13:00:06.745Z,8.89
2024-01-25T13:02:34.717Z,9.04
2024-01-25T13:05:02.700Z,8.79
2024-01-25T13:07:31.046Z,8.82
2024-01-25T13:10:00.441Z,8.84
2024-01-25T13:12:28.431Z,8.90
2024-01-25T13:14:56.394Z,8.82
2024-01-25T13:17:25.296Z,8.63
2024-01-25T13:19:53.576Z,8.52
2024-01-25T13:22:22.309Z,8.40
2024-01-25T13:24:50.285Z,8.51
2024-01-25T13:27:19.601Z,8.45
2024-01-25T13:29:47.718Z,8.56
2024-01-25T13:32:15.802Z,8.57
2024-01-25T13:34:43.807Z,8.45
2024-01-25T13:37:11.763Z,8.38
2024-01-25T13:39:39.899Z,8.37
2024-01-25T13:42:07.845Z,8.38
2024-01-25T13:44:39.425Z,8.36
2024-01-25T13:47:08.546Z,8.41
2024-01-25T13:49:36.742Z,8.38
2024-01-25T13:52:05.536Z,8.40
2024-01-25T13:54:33.693Z,8.36
2024-01-25T13:57:02.595Z,8.39
2024-01-25T13:59:32.597Z,8.36
2024-01-25T14:02:02.004Z,8.35
2024-01-25T14:04:30.032Z,8.22
2024-01-25T14:06:58.313Z,8.16
2024-01-25T14:09:26.382Z,8.12
2024-01-25T14:11:54.328Z,8.28
2024-01-25T14:14:22.484Z,8.20
2024-01-25T14:16:51.129Z,8.25
2024-01-25T14:19:21.634Z,8.22
2024-01-25T14:22:04.620Z,8.30
2024-01-25T14:24:39.821Z,8.24
2024-01-25T14:27:07.987Z,8.20
2024-01-25T14:29:35.894Z,8.16
2024-01-25T14:32:04.208Z,8.16
2024-01-25T14:34:33.652Z,8.06
2024-01-25T14:37:02.002Z,8.03
2024-01-25T14:39:29.956Z,8.15
2024-01-25T14:41:57.915Z,8.03
2024-01-25T14:44:25.858Z,7.98
2024-01-25T14:46:53.782Z,7.97
2024-01-25T14:49:21.742Z,7.92
2024-01-25T14:51:51.117Z,7.89
2024-01-25T14:54:19.390Z,7.83
2024-01-25T14:56:50.484Z,7.85
2024-01-25T14:59:18.553Z,7.84
2024-01-25T15:01:49.056Z,7.78
2024-01-25T15:04:20.041Z,7.83
2024-01-25T15:06:48.441Z,7.78
2024-01-25T15:09:17.962Z,7.77
2024-01-25T15:11:45.939Z,7.76
2024-01-25T15:14:15.213Z,7.81
2024-01-25T15:16:43.154Z,7.77
2024-01-25T15:19:11.251Z,7.80
2024-01-25T15:21:39.250Z,7.79
2024-01-25T15:24:07.512Z,7.73
2024-01-25T15:26:37.966Z,7.73
2024-01-25T15:29:05.945Z,7.70
2024-01-25T15:31:33.762Z,7.63
2024-01-25T15:34:01.811Z,7.68
2024-01-25T15:36:30.046Z,7.65
2024-01-25T15:38:58.037Z,7.68
2024-01-25T15:41:28.032Z,7.70
2024-01-25T15:43:57.342Z,7.65
2024-01-25T15:46:25.494Z,7.63
2024-01-25T15:48:55.535Z,7.65
2024-01-25T15:51:24.050Z,7.71
2024-01-25T15:53:51.977Z,7.69
2024-01-25T15:56:19.951Z,7.67
2024-01-25T15:58:47.934Z,7.72
2024-01-25T16:01:17.600Z,7.63
2024-01-25T16:03:45.747Z,7.67
2024-01-25T16:06:14.101Z,7.60
2024-01-25T16:08:42.353Z,7.65
2024-01-25T16:11:10.384Z,7.66
2024-01-25T16:13:38.271Z,7.68
2024-01-25T16:16:07.218Z,7.64
2024-01-25T16:18:36.616Z,7.62
2024-01-25T16:21:04.728Z,7.57
2024-01-25T16:23:32.671Z,7.61
2024-01-25T16:26:00.543Z,7.61
2024-01-25T16:28:28.579Z,7.63
2024-01-25T16:30:56.586Z,7.66
2024-01-25T16:33:26.458Z,7.66
2024-01-25T16:35:56.125Z,7.58
2024-01-25T16:38:24.629Z,7.68
2024-01-25T16:40:52.573Z,7.66
2024-01-25T16:43:20.676Z,7.65
2024-01-25T16:45:48.669Z,7.57
2024-01-25T16:48:20.150Z,7.60
2024-01-25T16:50:49.426Z,7.69
2024-01-25T16:53:18.690Z,7.64
2024-01-25T16:55:47.016Z,7.71
2024-01-25T16:58:15.132Z,7.65
2024-01-25T17:00:43.294Z,7.62
2024-01-25T17:03:11.265Z,7.57
2024-01-25T17:05:39.158Z,7.56
2024-01-25T17:08:07.676Z,7.50
2024-01-25T17:10:37.344Z,7.51
2024-01-25T17:13:05.846Z,7.53
2024-01-25T17:15:33.739Z,7.45
2024-01-25T17:18:01.879Z,7.47
2024-01-25T17:20:29.778Z,7.41
2024-01-25T17:22:58.384Z,7.41
2024-01-25T17:25:26.323Z,7.48
2024-01-25T17:27:55.674Z,7.45
2024-01-25T17:30:23.844Z,7.45
2024-01-25T17:32:52.239Z,7.42
2024-01-25T17:35:20.663Z,7.50
2024-01-25T17:37:48.570Z,7.44
2024-01-25T17:40:17.141Z,7.49
2024-01-25T17:42:46.610Z,7.46
2024-01-25T17:45:16.443Z,7.46
2024-01-25T17:47:45.485Z,7.37
2024-01-25T17:50:13.762Z,7.34
2024-01-25T17:52:41.797Z,7.37
2024-01-25T17:55:10.438Z,7.36
2024-01-25T17:57:38.458Z,7.45
2024-01-25T18:00:08.271Z,7.48
2024-01-25T18:02:38.815Z,7.35
2024-01-25T18:05:07.224Z,7.33
2024-01-25T18:07:35.194Z,7.45
2024-01-25T18:10:03.193Z,7.37
2024-01-25T18:12:32.012Z,7.34
2024-01-25T18:14:59.921Z,7.29
2024-01-25T18:17:28.187Z,7.31
2024-01-25T18:19:57.690Z,7.31
2024-01-25T18:22:25.757Z,7.23
2024-01-25T18:24:53.771Z,7.21
2024-01-25T18:27:22.104Z,7.33
2024-01-25T18:29:50.122Z,7.22
2024-01-25T18:32:18.127Z,7.23
2024-01-25T18:34:46.342Z,7.26
2024-01-25T18:37:15.698Z,7.21
2024-01-25T18:39:43.598Z,7.19
2024-01-25T18:42:11.565Z,7.33
2024-01-25T18:44:41.868Z,7.12
2024-01-25T18:47:11.371Z,7.06
2024-01-25T18:49:39.819Z,7.05
2024-01-25T18:52:10.074Z,7.08
2024-01-25T18:54:39.992Z,7.12
2024-01-25T18:57:09.101Z,7.13
2024-01-25T18:59:37.541Z,7.18
2024-01-25T19:02:06.042Z,7.15
2024-01-25T19:04:35.037Z,7.08
2024-01-25T19:07:03.591Z,7.07
2024-01-25T19:09:31.623Z,7.08
2024-01-25T19:12:01.001Z,7.10
2024-01-25T19:14:28.950Z,7.00
2024-01-25T19:16:58.191Z,7.00
2024-01-25T19:19:26.264Z,6.99
2024-01-25T19:21:55.132Z,6.99
2024-01-25T19:24:23.931Z,6.91
2024-01-25T19:26:52.298Z,7.04
2024-01-25T19:29:23.024Z,6.87
2024-01-25T19:31:50.986Z,6.89
2024-01-25T19:34:21.640Z,6.91
2024-01-25T19:36:50.369Z,6.91
2024-01-25T19:39:19.472Z,6.95
2024-01-25T19:41:47.987Z,6.88
2024-01-25T19:44:16.387Z,6.86
2024-01-25T19:46:45.837Z,6.89
2024-01-25T19:49:13.822Z,6.91
2024-01-25T19:51:41.789Z,6.85
2024-01-25T19:54:09.689Z,6.85
2024-01-25T19:56:37.716Z,6.74
2024-01-25T19:59:06.231Z,6.72
2024-01-25T20:01:34.680Z,6.80
2024-01-25T20:04:04.814Z,6.83
2024-01-25T20:06:33.706Z,6.83
2024-01-25T20:09:01.682Z,6.74
2024-01-25T20:11:29.663Z,6.69
2024-01-25T20:13:57.622Z,6.68
2024-01-25T20:16:25.625Z,6.60
2024-01-25T20:18:53.804Z,6.52
2024-01-25T20:21:25.852Z,6.57
2024-01-25T20:23:53.809Z,6.62
2024-01-25T20:26:23.572Z,6.60
2024-01-25T20:28:51.755Z,6.57
2024-01-25T20:31:21.372Z,6.58
2024-01-25T20:33:51.575Z,6.50
2024-01-25T20:36:19.814Z,6.53
2024-01-25T20:38:49.103Z,6.53
2024-01-25T20:41:17.062Z,6.50
2024-01-25T20:43:46.476Z,6.37
2024-01-25T20:46:15.017Z,6.32
2024-01-25T20:48:43.111Z,6.31
2024-01-25T20:51:11.117Z,6.31
2024-01-25T20:53:39.919Z,6.17
2024-01-25T20:56:10.213Z,6.18
2024-01-25T20:58:38.163Z,6.12
2024-01-25T21:01:06.733Z,6.07
2024-01-25T21:03:35.593Z,6.08
2024-01-25T21:06:04.095Z,6.03
2024-01-25T21:08:32.535Z,5.96
2024-01-25T21:11:01.055Z,5.91
2024-01-25T21:13:31.412Z,5.91
2024-01-25T21:15:59.315Z,5.88
2024-01-25T21:18:27.330Z,5.82
2024-01-25T21:20:55.330Z,5.86
2024-01-25T21:23:23.259Z,5.82
2024-01-25T21:25:51.233Z,5.77
2024-01-25T21:28:19.148Z,5.74
2024-01-25T21:30:48.545Z,5.72
2024-01-25T21:33:16.719Z,5.73
2024-01-25T21:35:44.957Z,5.73
2024-01-25T21:38:12.903Z,5.62
2024-01-25T21:40:40.858Z,5.59
2024-01-25T21:43:08.860Z,5.69
2024-01-25T21:45:36.939Z,5.59
2024-01-25T21:52:22.630Z,5.56
2024-01-25T21:54:50.887Z,5.61
2024-01-25T21:57:20.808Z,5.57
2024-01-25T21:59:48.910Z,5.54
2024-01-25T22:02:17.302Z,5.52
2024-01-25T22:04:45.639Z,5.45
2024-01-25T22:07:14.630Z,5.50
2024-01-25T22:09:46.915Z,5.43
2024-01-25T22:12:14.812Z,5.44
2024-01-25T22:14:42.683Z,5.37
2024-01-25T22:17:10.583Z,5.36
2024-01-25T22:19:38.708Z,5.32
2024-01-25T22:22:06.606Z,5.32
2024-01-25T22:24:34.562Z,5.33
2024-01-25T22:27:06.899Z,5.30
2024-01-25T22:29:34.862Z,5.24
2024-01-25T22:32:02.896Z,5.28
2024-01-25T22:34:30.856Z,5.25
2024-01-25T22:36:58.856Z,5.23
2024-01-25T22:39:26.722Z,5.26
2024-01-25T22:41:54.799Z,5.21
2024-01-25T22:44:24.008Z,5.18
2024-01-25T22:46:59.068Z,5.22
2024-01-25T22:49:30.841Z,5.15
2024-01-25T22:51:58.927Z,5.14
2024-01-25T22:54:27.186Z,5.11
2024-01-25T22:56:55.336Z,5.09
2024-01-25T22:59:25.005Z,5.02
2024-01-25T23:01:53.177Z,4.99
2024-01-25T23:04:21.297Z,5.04
2024-01-25T23:06:50.447Z,5.03
2024-01-25T23:09:19.962Z,5.05
2024-01-25T23:11:48.058Z,5.06
2024-01-25T23:14:16.271Z,5.11
2024-01-25T23:16:45.553Z,5.08
2024-01-25T23:19:13.668Z,5.04
2024-01-25T23:21:41.753Z,5.05
2024-01-25T23:24:10.003Z,5.09
2024-01-25T23:26:40.337Z,5.12
2024-01-25T23:29:08.472Z,5.13
2024-01-25T23:31:36.496Z,5.06
2024-01-25T23:34:06.020Z,5.08
2024-01-25T23:36:34.993Z,5.00
2024-01-25T23:39:04.129Z,4.96
2024-01-25T23:41:34.356Z,4.93
2024-01-25T23:44:02.368Z,4.94
2024-01-25T23:46:30.396Z,4.89
2024-01-25T23:48:58.563Z,4.97
2024-01-25T23:51:28.480Z,4.97
2024-01-25T23:53:56.505Z,4.98
2024-01-25T23:56:24.579Z,4.96
2024-01-25T23:58:52.737Z,4.94
